createdAt,value
2022-11-03T00:01:41.762Z,96236.09
2022-11-03T00:04:11.088Z,96223.72
2022-11-03T00:06:37.834Z,96223.69
2022-11-03T00:09:05.678Z,96207.84
2022-11-03T00:11:33.659Z,96199.31
2022-11-03T00:14:00.708Z,96202.03
2022-11-03T00:16:27.451Z,96181.19
2022-11-03T00:18:54.246Z,96200.47
2022-11-03T00:21:20.989Z,96193.56
2022-11-03T00:23:47.439Z,96200.88
2022-11-03T00:26:13.876Z,96200.88
2022-11-03T00:28:41.559Z,96204.41
2022-11-03T00:31:11.707Z,96220.22
2022-11-03T00:33:41.092Z,96209.81
2022-11-03T00:36:08.086Z,96239.19
2022-11-03T00:38:34.593Z,96238.44
2022-11-03T00:41:01.702Z,96254.72
2022-11-03T00:43:29.438Z,96273.25
2022-11-03T00:45:55.959Z,96261.69
2022-11-03T00:48:34.882Z,96286.78
2022-11-03T00:51:02.482Z,96288.75
2022-11-03T00:53:29.810Z,96301.53
2022-11-03T00:55:58.157Z,96308.47
2022-11-03T00:58:24.766Z,96300.38
2022-11-03T01:00:53.229Z,96320.03
2022-11-03T01:03:19.769Z,96320.88
2022-11-03T01:06:07.653Z,96325.88
2022-11-03T01:08:35.061Z,96329.75
2022-11-03T01:11:24.202Z,96338.69
2022-11-03T01:13:50.871Z,96359.16
2022-11-03T01:16:17.419Z,96369.28
2022-11-03T01:18:43.841Z,96403.97
2022-11-03T01:21:10.270Z,96407.56
2022-11-03T01:23:36.729Z,96432.72
2022-11-03T01:26:07.550Z,96461.97
2022-11-03T01:28:37.726Z,96454.38
2022-11-03T01:31:08.341Z,96478.28
2022-11-03T01:33:34.880Z,96493.75
2022-11-03T01:36:01.373Z,96495.44
2022-11-03T01:38:31.087Z,96529.31
2022-11-03T01:40:57.517Z,96520.91
2022-11-03T01:43:24.340Z,96530.53
2022-11-03T01:45:53.490Z,96540.50
2022-11-03T01:48:21.592Z,96544.09
2022-11-03T01:50:49.026Z,96571.41
2022-11-03T01:53:16.517Z,96562.22
2022-11-03T01:55:43.505Z,96571.91
2022-11-03T01:58:23.925Z,96583.06
2022-11-03T02:00:52.394Z,96585.84
2022-11-03T02:03:18.942Z,96615.84
2022-11-03T02:05:47.028Z,96601.63
2022-11-03T02:08:16.020Z,96635.94
2022-11-03T02:10:42.701Z,96655.22
2022-11-03T02:13:19.297Z,96670.75
2022-11-03T02:15:47.494Z,96685.88
2022-11-03T02:18:14.638Z,96681.41
2022-11-03T02:20:41.761Z,96703.63
2022-11-03T02:23:11.298Z,96716.63
2022-11-03T02:25:45.259Z,96705.97
2022-11-03T02:28:13.629Z,96736.16
2022-11-03T02:30:44.034Z,96728.16
2022-11-03T02:33:20.735Z,96738.41
2022-11-03T02:35:51.634Z,96734.81
2022-11-03T02:38:19.951Z,96726.44
2022-11-03T02:40:49.078Z,96731.22
2022-11-03T02:43:18.465Z,96709.75
2022-11-03T02:45:47.378Z,96713.78
2022-11-03T02:48:15.132Z,96703.69
2022-11-03T02:50:41.697Z,96696.94
2022-11-03T02:53:12.201Z,96688.97
2022-11-03T02:55:57.990Z,96646.66
2022-11-03T02:58:24.574Z,96638.97
2022-11-03T03:00:53.945Z,96609.38
2022-11-03T03:03:32.694Z,96599.75
2022-11-03T03:06:10.152Z,96591.53
2022-11-03T03:08:39.748Z,96564.31
2022-11-03T03:11:06.613Z,96565.78
2022-11-03T03:13:33.625Z,96553.06
2022-11-03T03:16:06.196Z,96538.88
2022-11-03T03:18:40.781Z,96535.72
2022-11-03T03:21:15.370Z,96527.38
2022-11-03T03:23:48.107Z,96534.19
2022-11-03T03:26:22.340Z,96521.44
2022-11-03T03:28:59.823Z,96518.13
2022-11-03T03:31:29.881Z,96530.34
2022-11-03T03:34:04.814Z,96532.06
2022-11-03T03:36:32.509Z,96548.63
2022-11-03T03:39:00.994Z,96552.44
2022-11-03T03:41:28.529Z,96551.06
2022-11-03T03:43:59.290Z,96576.06
2022-11-03T03:46:29.201Z,96589.19
2022-11-03T03:48:56.318Z,96604.75
2022-11-03T03:51:24.373Z,96627.00
2022-11-03T03:53:55.423Z,96628.72
2022-11-03T03:56:26.310Z,96649.84
2022-11-03T03:58:52.729Z,96667.94
2022-11-03T04:01:19.255Z,96672.75
2022-11-03T04:03:47.385Z,96706.50
2022-11-03T04:06:13.843Z,96721.19
2022-11-03T04:08:40.308Z,96737.38
2022-11-03T04:11:25.245Z,96749.38
2022-11-03T04:14:10.042Z,96753.44
2022-11-03T04:16:55.155Z,96797.44
2022-11-03T04:19:39.966Z,96805.03
2022-11-03T04:22:16.689Z,96826.03
2022-11-03T04:24:49.563Z,96824.91
2022-11-03T04:27:18.743Z,96809.97
2022-11-03T04:29:45.197Z,96836.59
2022-11-03T04:32:16.823Z,96846.03
2022-11-03T04:34:45.469Z,96845.66
2022-11-03T04:37:12.847Z,96868.50
2022-11-03T04:39:39.274Z,96856.16
2022-11-03T04:42:21.382Z,96856.34
2022-11-03T04:44:48.313Z,96853.94
2022-11-03T04:47:16.069Z,96835.63
2022-11-03T04:49:43.119Z,96845.06
2022-11-03T04:52:23.024Z,96853.47
2022-11-03T04:54:50.718Z,96833.53
2022-11-03T04:57:17.444Z,96840.00
2022-11-03T04:59:45.729Z,96819.81
2022-11-03T05:02:14.058Z,96790.91
2022-11-03T05:04:41.473Z,96782.22
2022-11-03T05:07:31.366Z,96742.34
2022-11-03T05:09:58.073Z,96710.28
2022-11-03T05:12:25.043Z,96696.91
2022-11-03T05:14:55.582Z,96671.50
2022-11-03T05:17:28.344Z,96651.69
2022-11-03T05:19:57.359Z,96638.41
2022-11-03T05:22:25.469Z,96630.31
2022-11-03T05:24:58.216Z,96627.88
2022-11-03T05:27:24.986Z,96675.31
2022-11-03T05:29:55.135Z,96643.28
2022-11-03T05:32:25.982Z,96631.25
2022-11-03T05:34:54.149Z,96593.78
2022-11-03T05:37:26.120Z,96558.72
2022-11-03T05:39:57.487Z,96560.72
2022-11-03T05:42:23.859Z,96580.97
2022-11-03T05:44:51.144Z,96605.63
2022-11-03T05:47:26.622Z,96607.41
2022-11-03T05:49:55.659Z,96597.34
2022-11-03T05:52:24.618Z,96571.84
2022-11-03T05:54:52.273Z,96623.66
2022-11-03T05:57:21.869Z,96644.84
2022-11-03T05:59:49.818Z,96626.09
2022-11-03T06:02:28.803Z,96629.59
2022-11-03T06:04:57.373Z,96626.59
2022-11-03T06:07:24.955Z,96623.41
2022-11-03T06:09:52.468Z,96632.31
2022-11-03T06:12:20.326Z,96608.72
2022-11-03T06:14:46.823Z,96622.13
2022-11-03T06:17:22.219Z,96673.09
2022-11-03T06:19:49.349Z,96694.50
2022-11-03T06:22:20.868Z,96704.94
2022-11-03T06:24:47.590Z,96694.59
2022-11-03T06:27:18.894Z,96666.47
2022-11-03T06:30:08.406Z,96650.22
2022-11-03T06:32:34.853Z,96611.53
2022-11-03T06:35:01.261Z,96566.63
2022-11-03T06:37:33.526Z,96543.28
2022-11-03T06:40:26.328Z,96583.31
2022-11-03T06:42:53.859Z,96569.81
2022-11-03T06:45:22.600Z,96561.47
2022-11-03T06:47:49.434Z,96539.31
2022-11-03T06:50:22.043Z,96496.06
2022-11-03T06:55:23.197Z,96406.25
2022-11-03T06:57:52.730Z,96391.03
2022-11-03T07:00:41.003Z,96349.06
2022-11-03T07:03:08.846Z,96309.19
2022-11-03T07:05:37.291Z,96280.59
2022-11-03T07:08:12.097Z,96261.44
2022-11-03T07:10:39.067Z,96251.28
2022-11-03T07:13:18.429Z,96241.28
2022-11-03T07:15:45.614Z,96237.19
2022-11-03T07:18:16.890Z,96256.56
2022-11-03T07:20:43.281Z,96210.94
2022-11-03T07:23:13.007Z,96183.56
2022-11-03T07:25:39.474Z,96159.94
2022-11-03T07:28:06.259Z,96135.88
2022-11-03T07:30:36.325Z,96121.31
2022-11-03T07:33:10.859Z,96122.44
2022-11-03T07:36:13.081Z,96115.91
2022-11-03T07:38:28.274Z,96102.53
2022-11-03T07:40:59.253Z,96112.84
2022-11-03T07:43:29.062Z,96102.63
2022-11-03T07:45:56.118Z,96093.97
2022-11-03T07:48:25.491Z,96105.91
2022-11-03T07:50:53.534Z,96113.28
2022-11-03T07:53:31.955Z,96086.88
2022-11-03T07:55:59.913Z,96093.44
2022-11-03T07:58:35.329Z,96103.88
2022-11-03T08:01:02.170Z,96105.88
2022-11-03T08:03:36.015Z,96106.38
2022-11-03T08:06:06.105Z,96110.53
2022-11-03T08:08:35.510Z,96089.44
2022-11-03T08:11:02.062Z,96084.91
2022-11-03T08:13:31.498Z,96097.25
2022-11-03T08:15:58.873Z,96107.38
2022-11-03T08:18:25.568Z,96117.16
2022-11-03T08:20:52.169Z,96128.69
2022-11-03T08:23:25.580Z,96138.41
2022-11-03T08:25:52.490Z,96145.06
2022-11-03T08:28:18.941Z,96160.03
2022-11-03T08:30:45.457Z,96170.56
2022-11-03T08:33:12.000Z,96187.22
2022-11-03T08:35:38.655Z,96205.72
2022-11-03T08:38:05.344Z,96214.75
2022-11-03T08:40:32.057Z,96236.78
2022-11-03T08:42:58.776Z,96269.63
2022-11-03T08:45:25.269Z,96280.22
2022-11-03T08:47:51.702Z,96327.22
2022-11-03T08:50:18.123Z,96349.75
2022-11-03T08:52:44.533Z,96389.94
2022-11-03T08:55:10.983Z,96448.09
2022-11-03T08:57:37.385Z,96458.69
2022-11-03T09:00:08.637Z,96510.44
2022-11-03T09:02:35.151Z,96542.84
2022-11-03T09:05:02.268Z,96558.94
2022-11-03T09:12:45.814Z,96620.88
2022-11-03T09:15:12.229Z,96648.13
2022-11-03T09:17:40.641Z,96669.03
2022-11-03T09:20:10.656Z,96687.00
2022-11-03T09:22:37.178Z,96707.75
2022-11-03T09:25:05.121Z,96726.69
2022-11-03T09:27:32.048Z,96745.06
2022-11-03T09:30:12.830Z,96797.41
2022-11-03T09:32:40.170Z,96793.63
2022-11-03T09:35:06.983Z,96808.41
2022-11-03T09:37:33.494Z,96857.69
2022-11-03T09:40:00.103Z,96861.03
2022-11-03T09:42:26.930Z,96879.59
2022-11-03T09:44:54.716Z,96883.81
2022-11-03T09:47:27.775Z,96862.84
2022-11-03T09:49:54.251Z,96872.16
2022-11-03T09:52:22.375Z,96881.34
2022-11-03T09:54:49.013Z,96877.81
2022-11-03T09:57:16.194Z,96883.09
2022-11-03T09:59:44.104Z,96877.69
2022-11-03T10:02:30.961Z,96873.25
2022-11-03T10:05:00.490Z,96907.41
2022-11-03T10:07:28.870Z,96893.63
2022-11-03T10:09:56.701Z,96903.31
2022-11-03T10:12:23.926Z,96914.34
2022-11-03T10:14:50.784Z,96920.72
2022-11-03T10:17:18.918Z,96933.41
2022-11-03T10:19:48.016Z,96944.81
2022-11-03T10:22:14.662Z,96930.69
2022-11-03T10:24:41.159Z,96938.81
2022-11-03T10:27:20.780Z,96939.06
2022-11-03T10:30:03.009Z,96925.81
2022-11-03T10:32:30.203Z,96941.41
2022-11-03T10:34:56.585Z,96930.16
2022-11-03T10:37:26.037Z,96908.72
2022-11-03T10:39:54.020Z,96929.47
2022-11-03T10:42:31.981Z,96917.56
2022-11-03T10:45:20.468Z,96911.88
2022-11-03T10:48:08.293Z,96914.50
2022-11-03T10:50:35.070Z,96892.66
2022-11-03T10:53:01.866Z,96897.91
2022-11-03T10:55:28.662Z,96893.22
2022-11-03T10:57:58.709Z,96895.34
2022-11-03T11:00:25.371Z,96902.47
2022-11-03T11:02:56.822Z,96904.75
2022-11-03T11:05:24.812Z,96891.84
2022-11-03T11:07:53.096Z,96895.50
2022-11-03T11:10:23.973Z,96885.50
2022-11-03T11:13:12.426Z,96877.88
2022-11-03T11:15:58.378Z,96888.50
2022-11-03T11:18:27.967Z,96867.03
2022-11-03T11:20:57.358Z,96854.28
2022-11-03T11:23:26.863Z,96857.66
2022-11-03T11:26:14.285Z,96822.28
2022-11-03T11:28:45.113Z,96833.78
2022-11-03T11:31:34.840Z,96828.03
2022-11-03T11:34:10.622Z,96803.16
2022-11-03T11:36:38.002Z,96803.88
2022-11-03T11:39:10.472Z,96793.19
2022-11-03T11:41:55.833Z,96787.03
2022-11-03T11:44:40.548Z,96788.84
2022-11-03T11:47:25.794Z,96777.06
2022-11-03T11:50:07.639Z,96799.44
2022-11-03T11:52:34.037Z,96808.75
2022-11-03T11:55:00.511Z,96795.28
2022-11-03T11:57:30.352Z,96804.78
2022-11-03T11:59:56.761Z,96807.38
2022-11-03T12:02:24.075Z,96800.53
2022-11-03T12:04:59.685Z,96787.53
2022-11-03T12:07:35.826Z,96800.16
2022-11-03T12:10:21.398Z,96791.63
2022-11-03T12:12:50.143Z,96756.66
2022-11-03T12:15:35.362Z,96770.88
2022-11-03T12:18:21.785Z,96770.81
2022-11-03T12:20:48.329Z,96764.88
2022-11-03T12:23:32.074Z,96781.81
2022-11-03T12:25:58.929Z,96776.31
2022-11-03T12:28:35.980Z,96763.38
2022-11-03T12:31:02.515Z,96784.88
2022-11-03T12:33:29.264Z,96785.78
2022-11-03T12:35:56.334Z,96792.09
2022-11-03T12:38:23.198Z,96800.47
2022-11-03T12:40:49.829Z,96792.47
2022-11-03T12:43:16.691Z,96796.06
2022-11-03T12:45:43.309Z,96802.31
2022-11-03T12:48:09.723Z,96830.25
2022-11-03T12:50:37.704Z,96850.81
2022-11-03T12:53:04.743Z,96875.22
2022-11-03T12:55:31.496Z,96913.19
2022-11-03T12:57:57.946Z,96941.84
2022-11-03T13:00:24.633Z,96970.13
2022-11-03T13:02:51.452Z,97011.56
2022-11-03T13:05:19.159Z,97037.91
2022-11-03T13:07:47.609Z,97075.13
2022-11-03T13:10:16.014Z,97098.34
2022-11-03T13:12:44.589Z,97109.59
2022-11-03T13:15:15.791Z,97112.75
2022-11-03T13:20:28.690Z,97140.94
2022-11-03T13:22:55.154Z,97149.50
2022-11-03T13:25:24.423Z,97161.91
2022-11-03T13:27:54.032Z,97168.13
2022-11-03T13:30:24.990Z,97174.63
2022-11-03T13:32:51.574Z,97171.19
2022-11-03T13:35:20.565Z,97178.19
2022-11-03T13:37:47.069Z,97171.19
2022-11-03T13:40:35.870Z,97164.56
2022-11-03T13:43:00.387Z,97154.06
2022-11-03T13:45:27.578Z,97171.09
2022-11-03T13:48:39.646Z,97177.22
2022-11-03T13:50:41.297Z,97169.09
2022-11-03T13:55:56.243Z,97177.22
2022-11-03T14:01:13.573Z,97169.38
2022-11-03T14:06:27.486Z,97163.97
2022-11-03T14:08:53.874Z,97167.88
2022-11-03T14:11:40.686Z,97171.09
2022-11-03T14:14:07.074Z,97179.66
2022-11-03T14:16:34.065Z,97175.38
2022-11-03T14:19:00.564Z,97178.06
2022-11-03T14:21:27.065Z,97174.22
2022-11-03T14:23:53.666Z,97164.53
2022-11-03T14:26:33.052Z,97177.66
2022-11-03T14:29:08.461Z,97179.22
2022-11-03T14:31:36.831Z,97167.22
2022-11-03T14:34:03.405Z,97171.09
2022-11-03T14:36:29.933Z,97160.25
2022-11-03T14:38:56.555Z,97157.16
2022-11-03T14:41:41.508Z,97156.38
2022-11-03T14:44:08.121Z,97150.09
2022-11-03T14:46:34.612Z,97151.25
2022-11-03T14:49:02.001Z,97148.53
2022-11-03T14:51:29.173Z,97150.81
2022-11-03T14:53:56.953Z,97147.69
2022-11-03T14:56:24.290Z,97143.84
2022-11-03T14:58:50.852Z,97137.28
2022-11-03T15:01:18.039Z,97137.28
2022-11-03T15:03:45.223Z,97133.84
2022-11-03T15:06:12.937Z,97140.78
2022-11-03T15:08:39.378Z,97136.13
2022-11-03T15:11:07.899Z,97136.13
2022-11-03T15:13:39.526Z,97140.06
2022-11-03T15:16:10.494Z,97131.56
2022-11-03T15:18:36.887Z,97139.97
2022-11-03T15:21:03.894Z,97131.56
2022-11-03T15:26:16.956Z,97127.72
2022-11-03T15:28:43.426Z,97123.78
2022-11-03T15:31:09.869Z,97124.50
2022-11-03T15:33:36.355Z,97120.66
2022-11-03T15:36:04.645Z,97122.56
2022-11-03T15:38:31.365Z,97112.44
2022-11-03T15:41:15.805Z,97113.22
2022-11-03T15:43:46.553Z,97117.88
2022-11-03T15:46:14.134Z,97104.75
2022-11-03T15:48:40.780Z,97099.03
2022-11-03T15:51:07.314Z,97109.03
2022-11-03T15:53:33.759Z,97102.81
2022-11-03T15:56:00.480Z,97093.91
2022-11-03T15:58:27.577Z,97105.88
2022-11-03T16:00:54.070Z,97102.03
2022-11-03T16:03:20.667Z,97097.81
2022-11-03T16:05:47.851Z,97089.75
2022-11-03T16:08:14.251Z,97088.59
2022-11-03T16:10:45.911Z,97087.47
2022-11-03T16:13:16.117Z,97082.78
2022-11-03T16:15:42.526Z,97085.88
2022-11-03T16:18:09.378Z,97092.88
2022-11-03T16:20:38.311Z,97089.78
2022-11-03T16:23:04.722Z,97081.28
2022-11-03T16:25:31.223Z,97079.72
2022-11-03T16:27:57.701Z,97080.13
2022-11-03T16:30:24.153Z,97082.44
2022-11-03T16:32:53.190Z,97077.84
2022-11-03T16:35:20.331Z,97066.66
2022-11-03T16:37:46.869Z,97072.44
2022-11-03T16:40:18.775Z,97072.06
2022-11-03T16:42:46.040Z,97076.72
2022-11-03T16:45:19.273Z,97071.28
2022-11-03T16:47:46.450Z,97058.50
2022-11-03T16:50:13.296Z,97061.16
2022-11-03T16:52:39.750Z,97057.31
2022-11-03T16:55:06.465Z,97061.59
2022-11-03T16:57:32.861Z,97062.72
2022-11-03T16:59:59.554Z,97058.88
2022-11-03T17:02:28.071Z,97064.28
2022-11-03T17:04:55.406Z,97058.16
2022-11-03T17:07:21.930Z,97051.88
2022-11-03T17:09:48.630Z,97041.88
2022-11-03T17:12:17.329Z,97045.00
2022-11-03T17:14:43.725Z,97043.03
2022-11-03T17:17:12.841Z,97036.44
2022-11-03T17:19:39.302Z,97038.03
2022-11-03T17:22:05.862Z,97043.88
2022-11-03T17:24:32.720Z,97045.84
2022-11-03T17:26:59.313Z,97041.28
2022-11-03T17:29:41.562Z,97032.72
2022-11-03T17:32:10.906Z,97034.28
2022-11-03T17:34:37.536Z,97031.16
2022-11-03T17:37:04.107Z,97021.88
2022-11-03T17:39:33.695Z,97021.13
2022-11-03T17:42:16.886Z,97019.94
2022-11-03T17:44:49.014Z,97015.69
2022-11-03T17:47:16.482Z,97006.09
2022-11-03T17:49:43.593Z,97018.09
2022-11-03T17:52:23.333Z,97012.72
2022-11-03T17:54:55.739Z,97028.94
2022-11-03T17:57:22.831Z,97025.88
2022-11-03T17:59:50.919Z,97047.94
2022-11-03T18:02:19.041Z,97051.53
2022-11-03T18:04:46.642Z,97030.88
2022-11-03T18:07:19.809Z,97017.06
2022-11-03T18:09:46.259Z,97010.97
2022-11-03T18:12:43.799Z,97006.00
2022-11-03T18:15:16.426Z,97008.38
2022-11-03T18:17:43.112Z,97004.13
2022-11-03T18:20:14.147Z,97009.88
2022-11-03T18:22:40.582Z,97034.56
2022-11-03T18:25:14.530Z,97012.19
2022-11-03T18:27:41.018Z,97007.38
2022-11-03T18:30:09.171Z,96997.28
2022-11-03T18:32:36.151Z,96971.41
2022-11-03T18:35:03.175Z,96953.75
2022-11-03T18:37:30.837Z,96939.97
2022-11-03T18:39:57.253Z,96937.47
2022-11-03T18:42:23.683Z,96916.94
2022-11-03T18:44:50.975Z,96896.94
2022-11-03T18:47:17.503Z,96889.34
2022-11-03T18:49:44.093Z,96869.84
2022-11-03T18:52:15.130Z,96863.44
2022-11-03T18:54:45.089Z,96839.13
2022-11-03T18:57:12.421Z,96823.66
2022-11-03T18:59:44.582Z,96823.09
2022-11-03T19:02:21.348Z,96796.56
2022-11-03T19:04:48.922Z,96796.31
2022-11-03T19:07:26.018Z,96777.06
2022-11-03T19:09:52.434Z,96770.03
2022-11-03T19:12:19.285Z,96747.19
2022-11-03T19:14:48.126Z,96742.66
2022-11-03T19:17:22.914Z,96740.50
2022-11-03T19:19:50.221Z,96719.75
2022-11-03T19:22:17.961Z,96725.81
2022-11-03T19:24:45.209Z,96716.50
2022-11-03T19:27:22.896Z,96704.97
2022-11-03T19:29:49.322Z,96709.81
2022-11-03T19:32:21.883Z,96694.03
2022-11-03T19:34:50.375Z,96692.81
2022-11-03T19:37:16.884Z,96680.00
2022-11-03T19:39:43.449Z,96662.31
2022-11-03T19:42:28.722Z,96659.81
2022-11-03T19:44:59.144Z,96632.88
2022-11-03T19:47:33.594Z,96626.59
2022-11-03T19:50:00.906Z,96620.34
2022-11-03T19:52:28.329Z,96604.59
2022-11-03T19:54:55.804Z,96614.84
2022-11-03T19:57:22.388Z,96607.94
2022-11-03T19:59:48.927Z,96608.69
2022-11-03T20:02:15.709Z,96606.22
2022-11-03T20:04:46.661Z,96582.38
2022-11-03T20:07:15.108Z,96583.84
2022-11-03T20:09:41.704Z,96571.41
2022-11-03T20:12:10.031Z,96564.56
2022-11-03T20:14:36.548Z,96552.00
2022-11-03T20:17:11.445Z,96524.28
2022-11-03T20:19:40.309Z,96535.09
2022-11-03T20:22:09.940Z,96527.25
2022-11-03T20:24:36.897Z,96498.81
2022-11-03T20:27:03.423Z,96506.78
2022-11-03T20:29:34.671Z,96489.41
2022-11-03T20:32:01.390Z,96461.66
2022-11-03T20:34:27.898Z,96478.94
2022-11-03T20:36:54.615Z,96462.41
2022-11-03T20:39:21.175Z,96463.97
2022-11-03T20:41:48.961Z,96450.69
2022-11-03T20:44:15.876Z,96434.59
2022-11-03T20:46:42.949Z,96442.66
2022-11-03T20:49:09.762Z,96444.53
2022-11-03T20:51:40.974Z,96427.66
2022-11-03T20:54:17.923Z,96432.97
2022-11-03T20:56:44.599Z,96421.41
2022-11-03T20:59:12.326Z,96414.50
2022-11-03T21:01:39.584Z,96424.44
2022-11-03T21:04:13.945Z,96415.97
2022-11-03T21:06:40.427Z,96416.03
2022-11-03T21:09:10.726Z,96414.72
2022-11-03T21:11:39.965Z,96404.78
2022-11-03T21:14:21.294Z,96415.16
2022-11-03T21:17:06.445Z,96412.78
2022-11-03T21:19:41.648Z,96389.72
2022-11-03T21:22:50.949Z,96399.66
2022-11-03T21:25:02.841Z,96390.44
2022-11-03T21:27:29.267Z,96367.25
2022-11-03T21:29:59.430Z,96387.28
2022-11-03T21:32:26.535Z,96373.84
2022-11-03T21:34:52.954Z,96387.69
2022-11-03T21:37:19.590Z,96379.53
2022-11-03T21:39:46.233Z,96376.19
2022-11-03T21:42:31.826Z,96383.06
2022-11-03T21:44:58.789Z,96382.69
2022-11-03T21:47:25.340Z,96370.41
2022-11-03T21:49:51.979Z,96383.41
2022-11-03T21:52:38.670Z,96385.78
2022-11-03T21:55:05.382Z,96381.97
2022-11-03T21:57:31.867Z,96396.91
2022-11-03T22:00:01.128Z,96384.28
2022-11-03T22:02:29.976Z,96380.38
2022-11-03T22:04:57.039Z,96385.31
2022-11-03T22:07:24.713Z,96366.88
2022-11-03T22:09:51.239Z,96376.84
2022-11-03T22:12:17.724Z,96371.84
2022-11-03T22:15:02.752Z,96361.09
2022-11-03T22:17:29.217Z,96370.25
2022-11-03T22:20:16.736Z,96367.63
2022-11-03T22:23:01.666Z,96395.81
2022-11-03T22:25:46.524Z,96384.25
2022-11-03T22:28:14.876Z,96385.06
2022-11-03T22:30:59.963Z,96390.00
2022-11-03T22:33:26.902Z,96377.34
2022-11-03T22:36:20.261Z,96395.81
2022-11-03T22:39:06.814Z,96393.56
2022-11-03T22:41:51.881Z,96399.00
2022-11-03T22:44:37.098Z,96421.81
2022-11-03T22:47:05.630Z,96433.81
2022-11-03T22:49:34.483Z,96445.34
2022-11-03T22:52:00.994Z,96449.00
2022-11-03T22:54:27.381Z,96477.09
2022-11-03T22:56:53.928Z,96474.41
2022-11-03T22:59:20.373Z,96470.94
2022-11-03T23:01:47.062Z,96503.34
2022-11-03T23:04:14.418Z,96495.72
2022-11-03T23:06:41.123Z,96511.19
2022-11-03T23:09:08.063Z,96535.47
2022-11-03T23:11:35.171Z,96536.72
2022-11-03T23:14:03.385Z,96554.75
2022-11-03T23:16:31.175Z,96544.84
2022-11-03T23:19:18.630Z,96563.00
2022-11-03T23:21:45.998Z,96568.41
2022-11-03T23:24:31.474Z,96570.78
2022-11-03T23:26:59.562Z,96584.16
2022-11-03T23:29:26.364Z,96579.31
2022-11-03T23:31:53.506Z,96589.97
2022-11-03T23:34:19.945Z,96559.09
2022-11-03T23:36:49.027Z,96548.31
2022-11-03T23:39:18.950Z,96547.41
2022-11-03T23:41:45.601Z,96524.34
2022-11-03T23:44:12.534Z,96523.03
2022-11-03T23:46:59.798Z,96506.06
2022-11-03T23:49:28.661Z,96491.75
2022-11-03T23:51:57.369Z,96485.47
2022-11-03T23:54:26.330Z,96468.56
2022-11-03T23:57:11.153Z,96465.72
2022-11-03T23:59:37.692Z,96431.38
